Time;durP1;ratioP1;P1;durP2;ratioP2;P2;SDS_P1;SDS_P2;PMS_P1;PMS_P2;Temp;Humidity;BMP_temperature;BMP_pressure;BME280_temperature;BME280_humidity;BME280_pressure;Samples;Min_cycle;Max_cycle;Signal;HPM_P1;HPM_P2
2022/05/20 00:02:06;;;;;;;6.33;1.50;;;;;;;16.57;100.00;101376.11;1912686;74;21463;-75
2022/05/20 00:04:33;;;;;;;6.37;1.95;;;;;;;16.61;100.00;101365.27;1913101;74;21057;-75
2022/05/20 00:07:01;;;;;;;5.58;1.72;;;;;;;16.55;100.00;101377.00;1883567;74;21567;-74
2022/05/20 00:09:28;;;;;;;9.63;1.62;;;;;;;16.47;100.00;101345.52;1913105;74;20994;-74
2022/05/20 00:11:55;;;;;;;9.18;2.95;;;;;;;16.33;100.00;101349.56;1905694;73;21002;-74
2022/05/20 00:14:23;;;;;;;9.35;1.57;;;;;;;16.40;100.00;101350.38;1921064;73;21093;-74
2022/05/20 00:16:50;;;;;;;11.70;1.80;;;;;;;16.60;100.00;101355.75;1913147;74;21054;-74
2022/05/20 00:19:18;;;;;;;7.05;1.10;;;;;;;16.67;100.00;101365.64;1915357;74;21589;-74
2022/05/20 00:21:45;;;;;;;13.03;2.90;;;;;;;16.65;100.00;101356.58;1915883;74;21195;-74
2022/05/20 00:24:13;;;;;;;5.70;1.40;;;;;;;16.47;100.00;101340.33;1916008;74;21513;-74
2022/05/20 00:26:40;;;;;;;20.08;3.35;;;;;;;16.58;100.00;101340.66;1914316;73;21459;-74
2022/05/20 00:29:07;;;;;;;10.10;2.17;;;;;;;16.30;100.00;101334.48;1940752;74;21080;-74
2022/05/20 00:31:35;;;;;;;10.85;3.27;;;;;;;16.42;100.00;101334.34;1940795;74;21051;-74
2022/05/20 00:34:02;;;;;;;4.28;1.85;;;;;;;16.31;100.00;101327.12;1940999;74;21041;-74
2022/05/20 00:36:30;;;;;;;10.30;1.37;;;;;;;16.37;100.00;101319.29;1940990;74;21006;-74
2022/05/20 00:38:57;;;;;;;6.90;1.90;;;;;;;16.37;100.00;101307.62;1920742;73;21132;-74
2022/05/20 00:41:24;;;;;;;7.22;1.80;;;;;;;16.46;100.00;101337.33;1942599;73;21653;-74
2022/05/20 00:43:52;;;;;;;4.05;1.62;;;;;;;16.30;100.00;101354.80;1940777;74;21098;-74
2022/05/20 00:46:23;;;;;;;3.42;1.65;;;;;;;16.43;100.00;101350.78;1919908;73;21093;-74
2022/05/20 00:48:57;;;;;;;6.53;1.67;;;;;;;16.42;100.00;101356.82;1940975;74;21053;-74
2022/05/20 00:51:30;;;;;;;15.28;1.98;;;;;;;16.51;100.00;101353.69;1943453;73;21479;-74
2022/05/20 00:54:06;;;;;;;8.78;2.58;;;;;;;16.31;100.00;101340.95;1944026;73;21658;-74
2022/05/20 00:56:39;;;;;;;5.10;1.27;;;;;;;16.54;100.00;101346.33;1944327;73;21022;-74
2022/05/20 00:59:09;;;;;;;4.08;1.62;;;;;;;16.63;100.00;101343.62;1943837;73;21018;-74
2022/05/20 01:01:36;;;;;;;7.35;1.80;;;;;;;16.61;100.00;101343.23;1949140;73;21070;-74
2022/05/20 01:04:05;;;;;;;6.97;1.57;;;;;;;16.54;100.00;101331.20;1922433;73;21187;-74
2022/05/20 01:06:33;;;;;;;5.37;1.42;;;;;;;16.40;100.00;101331.36;1915369;74;21094;-74
2022/05/20 01:09:00;;;;;;;8.08;2.10;;;;;;;16.42;100.00;101332.18;1912468;73;21129;-74
2022/05/20 01:11:28;;;;;;;10.00;1.65;;;;;;;16.32;100.00;101329.70;1915909;74;21108;-74
2022/05/20 01:13:56;;;;;;;4.95;1.75;;;;;;;16.30;100.00;101324.12;1915664;74;21047;-75
2022/05/20 01:16:23;;;;;;;3.30;1.47;;;;;;;16.25;100.00;101313.78;1933202;73;21035;-74
2022/05/20 01:18:56;;;;;;;5.78;2.00;;;;;;;16.16;100.00;101312.17;1943042;74;21114;-74
2022/05/20 01:21:24;;;;;;;7.95;1.85;;;;;;;15.99;100.00;101313.17;1929928;72;21159;-74
2022/05/20 01:23:51;;;;;;;3.12;1.32;;;;;;;15.79;100.00;101301.69;1915773;74;21050;-74
2022/05/20 01:26:18;;;;;;;8.20;1.98;;;;;;;16.09;100.00;101310.05;1915742;74;21134;-74
2022/05/20 01:28:46;;;;;;;7.00;1.70;;;;;;;16.07;100.00;101305.34;1921312;74;21091;-74
2022/05/20 01:31:15;;;;;;;8.55;2.22;;;;;;;16.14;100.00;101306.12;1922922;74;21014;-74
2022/05/20 01:33:45;;;;;;;7.85;1.50;;;;;;;16.03;100.00;101297.60;1941094;73;21167;-74
2022/05/20 01:36:16;;;;;;;7.87;2.12;;;;;;;15.88;100.00;101290.81;1939168;74;21049;-75
2022/05/20 01:38:44;;;;;;;4.45;2.42;;;;;;;15.96;100.00;101289.91;1940650;74;21537;-74
2022/05/20 01:41:14;;;;;;;5.17;1.42;;;;;;;16.01;100.00;101290.30;1940880;74;21059;-75
2022/05/20 01:43:56;;;;;;;3.37;1.55;;;;;;;15.99;100.00;101300.21;1939027;74;21051;-74
2022/05/20 01:46:38;;;;;;;7.15;1.62;;;;;;;15.99;100.00;101291.60;1939631;74;21079;-74
2022/05/20 01:49:11;;;;;;;9.73;2.55;;;;;;;15.93;100.00;101285.14;1949494;73;21035;-74
2022/05/20 01:51:50;;;;;;;9.73;1.75;;;;;;;15.84;100.00;101284.78;1946407;73;21486;-74
2022/05/20 01:54:42;;;;;;;10.40;2.25;;;;;;;15.94;100.00;101286.42;1949247;73;21055;-74
2022/05/20 01:57:15;;;;;;;5.22;2.02;;;;;;;15.84;100.00;101281.77;1944212;73;21073;-74
2022/05/20 01:59:46;;;;;;;6.47;1.70;;;;;;;15.83;100.00;101277.89;1935759;73;21041;-74
2022/05/20 02:02:16;;;;;;;5.97;2.30;;;;;;;15.94;100.00;101273.89;1915536;74;21031;-74
2022/05/20 02:04:47;;;;;;;5.50;1.55;;;;;;;15.70;100.00;101264.19;1915584;74;21515;-74
2022/05/20 02:07:22;;;;;;;3.65;1.40;;;;;;;15.91;100.00;101272.65;1916328;73;21455;-74
2022/05/20 02:09:56;;;;;;;4.45;1.42;;;;;;;15.71;100.00;101278.42;1940973;74;21550;-74
2022/05/20 02:12:25;;;;;;;2.90;1.10;;;;;;;15.83;100.00;101280.05;1904822;74;21102;-74
2022/05/20 02:15:11;;;;;;;7.58;1.45;;;;;;;15.80;100.00;101285.69;1915277;74;21062;-74
2022/05/20 02:17:40;;;;;;;4.17;1.42;;;;;;;15.79;100.00;101290.45;1928095;73;21037;-74
2022/05/20 02:20:17;;;;;;;7.47;1.85;;;;;;;15.67;100.00;101288.84;1914185;74;21154;-74
2022/05/20 02:22:50;;;;;;;8.98;2.12;;;;;;;15.65;100.00;101287.98;1903215;75;21027;-74
2022/05/20 02:25:20;;;;;;;11.93;2.77;;;;;;;15.68;100.00;101286.67;1902396;74;21162;-74
2022/05/20 02:27:50;;;;;;;4.12;1.75;;;;;;;15.76;100.00;101283.57;1905309;75;21003;-74
2022/05/20 02:30:20;;;;;;;8.73;2.22;;;;;;;15.48;100.00;101279.50;1907947;74;21096;-74
2022/05/20 02:32:50;;;;;;;4.17;1.20;;;;;;;15.55;100.00;101260.02;1914814;74;21014;-74
2022/05/20 02:35:17;;;;;;;9.25;2.00;;;;;;;15.58;100.00;101259.98;1926295;74;21135;-74
2022/05/20 02:37:46;;;;;;;4.00;1.60;;;;;;;15.60;100.00;101251.33;1908387;75;21000;-74
2022/05/20 02:40:16;;;;;;;5.72;1.35;;;;;;;15.69;100.00;101253.41;1910241;75;21030;-74
2022/05/20 02:42:44;;;;;;;6.53;2.10;;;;;;;15.71;100.00;101256.86;1909468;75;21601;-74
2022/05/20 02:45:12;;;;;;;9.10;2.10;;;;;;;15.44;100.00;101259.69;1912647;74;21059;-74
2022/05/20 02:47:40;;;;;;;6.12;1.45;;;;;;;15.80;100.00;101261.07;1929672;74;21022;-74
2022/05/20 02:50:10;;;;;;;6.50;2.20;;;;;;;15.90;100.00;101265.30;1908197;75;21170;-74
2022/05/20 02:52:38;;;;;;;6.28;1.40;;;;;;;15.76;100.00;101273.63;1908162;74;21029;-74
2022/05/20 02:55:07;;;;;;;6.70;2.15;;;;;;;15.97;100.00;101283.84;1908234;75;21070;-74
2022/05/20 02:57:35;;;;;;;5.62;1.67;;;;;;;15.76;100.00;101282.28;1909766;74;21100;-74
2022/05/20 03:05:36;;;;;;;4.60;1.40;;;;;;;16.00;100.00;101285.53;1902567;74;21083;-74
2022/05/20 03:08:04;;;;;;;7.33;1.80;;;;;;;15.82;100.00;101284.83;1902837;74;21113;-74
2022/05/20 03:10:32;;;;;;;5.95;1.50;;;;;;;15.80;100.00;101286.55;1902512;74;21025;-75
2022/05/20 03:13:04;;;;;;;6.53;1.72;;;;;;;15.77;100.00;101284.44;1904254;75;21054;-74
2022/05/20 03:15:32;;;;;;;8.40;1.40;;;;;;;15.43;100.00;101283.84;1903269;75;21061;-74
2022/05/20 03:17:59;;;;;;;5.72;1.17;;;;;;;15.61;100.00;101294.48;1896163;75;21038;-74
2022/05/20 03:20:27;;;;;;;5.45;1.30;;;;;;;15.81;100.00;101288.27;1913576;74;21131;-74
2022/05/20 03:22:55;;;;;;;7.33;1.65;;;;;;;15.93;100.00;101301.98;1893415;75;21100;-74
2022/05/20 03:25:22;;;;;;;8.23;1.67;;;;;;;15.72;100.00;101302.19;1929500;74;21026;-74
2022/05/20 03:27:50;;;;;;;7.03;1.85;;;;;;;15.92;100.00;101299.84;1915063;75;21003;-74
2022/05/20 03:30:17;;;;;;;5.15;1.55;;;;;;;15.91;100.00;101298.56;1887684;75;21084;-74
2022/05/20 03:32:45;;;;;;;8.78;1.62;;;;;;;15.93;100.00;101296.38;1885836;75;21033;-74
2022/05/20 03:35:13;;;;;;;4.90;1.45;;;;;;;15.69;100.00;101289.67;1909337;74;21233;-74
2022/05/20 03:37:40;;;;;;;7.80;1.87;;;;;;;15.88;100.00;101282.61;1913862;75;21037;-74
2022/05/20 03:40:10;;;;;;;7.75;1.77;;;;;;;15.67;100.00;101283.66;1913028;75;21014;-74
2022/05/20 03:42:37;;;;;;;4.67;1.70;;;;;;;15.55;100.00;101280.73;1920660;74;21496;-74
2022/05/20 03:45:06;;;;;;;16.23;1.98;;;;;;;15.41;100.00;101284.72;1932312;73;21061;-74
2022/05/20 03:47:33;;;;;;;14.78;2.80;;;;;;;15.18;100.00;101284.02;1909709;75;21558;-73
2022/05/20 03:50:01;;;;;;;2.95;1.55;;;;;;;15.31;100.00;101289.11;1909389;75;21126;-73
2022/05/20 03:52:28;;;;;;;13.05;1.75;;;;;;;15.34;100.00;101289.97;1909487;75;21027;-73
2022/05/20 03:54:56;;;;;;;8.98;1.87;;;;;;;15.38;100.00;101286.03;1909243;75;21589;-73
2022/05/20 03:57:24;;;;;;;8.75;1.60;;;;;;;15.26;100.00;101283.98;1909474;75;21122;-73
2022/05/20 03:59:51;;;;;;;15.70;2.42;;;;;;;15.44;100.00;101285.58;1908875;75;21085;-73
2022/05/20 04:02:18;;;;;;;6.53;1.47;;;;;;;15.35;100.00;101292.10;1909489;74;21192;-73
2022/05/20 04:04:49;;;;;;;7.83;2.42;;;;;;;15.52;100.00;101291.11;1908911;75;21231;-73
2022/05/20 04:07:27;;;;;;;9.23;2.08;;;;;;;15.30;100.00;101298.63;1887042;75;21464;-73
2022/05/20 04:09:55;;;;;;;8.58;2.00;;;;;;;15.27;100.00;101299.06;1909355;74;21035;-73
2022/05/20 04:12:38;;;;;;;4.95;1.50;;;;;;;15.11;100.00;101293.14;1911246;75;21017;-73
2022/05/20 04:15:08;;;;;;;12.00;2.37;;;;;;;15.10;100.00;101288.39;1909513;75;21088;-73
2022/05/20 04:17:36;;;;;;;5.97;1.72;;;;;;;15.05;100.00;101291.00;1906771;74;21032;-72
2022/05/20 04:20:05;;;;;;;5.65;1.67;;;;;;;15.16;100.00;101295.27;1910759;74;21087;-73
2022/05/20 04:22:34;;;;;;;4.78;1.42;;;;;;;15.18;100.00;101296.09;1915786;74;21029;-73
2022/05/20 04:25:03;;;;;;;4.15;1.42;;;;;;;14.96;100.00;101293.23;1915605;74;21144;-73
2022/05/20 04:27:30;;;;;;;5.25;1.67;;;;;;;15.15;100.00;101303.91;1915508;74;22277;-72
2022/05/20 04:29:59;;;;;;;3.30;1.20;;;;;;;15.09;100.00;101304.34;1915422;74;21094;-72
2022/05/20 04:32:27;;;;;;;7.95;1.60;;;;;;;15.11;100.00;101313.39;1887645;75;21061;-72
2022/05/20 04:34:54;;;;;;;14.35;1.75;;;;;;;14.95;100.00;101312.19;1915568;74;21712;-73
2022/05/20 04:37:23;;;;;;;5.58;2.30;;;;;;;15.19;100.00;101316.80;1904624;74;21014;-73
2022/05/20 04:39:51;;;;;;;4.75;1.47;;;;;;;15.28;100.00;101318.89;1943514;74;21065;-73
2022/05/20 04:47:49;;;;;;;6.00;2.12;;;;;;;15.28;100.00;101318.89;1942831;73;21124;-73
2022/05/20 04:50:17;;;;;;;8.35;2.37;;;;;;;15.19;100.00;101318.09;1940736;74;21049;-72
2022/05/20 04:52:44;;;;;;;6.25;2.00;;;;;;;15.32;100.00;101315.45;1946495;73;21084;-73
2022/05/20 04:55:12;;;;;;;8.68;1.80;;;;;;;15.35;100.00;101316.70;1940738;74;21065;-73
2022/05/20 04:57:51;;;;;;;4.58;1.42;;;;;;;15.39;100.00;101320.98;1943327;74;21025;-73
2022/05/20 05:00:21;;;;;;;5.50;1.52;;;;;;;15.30;100.00;101325.81;1915539;74;21464;-73
2022/05/20 05:02:49;;;;;;;16.35;3.58;;;;;;;15.38;100.00;101333.51;1914504;74;21468;-73
2022/05/20 05:05:19;;;;;;;8.10;1.87;;;;;;;15.26;100.00;101334.89;1915841;74;21215;-73
2022/05/20 05:07:49;;;;;;;6.62;1.90;;;;;;;15.53;100.00;101327.81;1915706;74;21023;-73
2022/05/20 05:10:19;;;;;;;8.05;1.87;;;;;;;15.51;100.00;101320.05;1915843;74;21038;-72
2022/05/20 05:12:47;;;;;;;8.18;1.95;;;;;;;15.29;100.00;101325.36;1936481;73;21002;-72
2022/05/20 05:15:15;;;;;;;9.30;1.87;;;;;;;15.42;100.00;101342.11;1942063;73;21124;-72
2022/05/20 05:20:32;;;;;;;7.00;1.60;;;;;;;15.51;100.00;101354.14;1911401;74;21078;-73
2022/05/20 05:23:00;;;;;;;8.55;1.55;;;;;;;15.45;100.00;101349.44;1862737;75;21035;-72
2022/05/20 05:25:29;;;;;;;10.35;2.00;;;;;;;15.69;100.00;101363.50;1901548;74;21132;-72
2022/05/20 05:27:57;;;;;;;4.60;1.80;;;;;;;15.62;100.00;101366.58;1902667;75;21037;-73
2022/05/20 05:30:25;;;;;;;8.83;1.82;;;;;;;15.57;100.00;101368.34;1863548;75;21065;-72
2022/05/20 05:32:53;;;;;;;9.63;1.82;;;;;;;15.35;100.00;101369.77;1906930;75;21145;-72
2022/05/20 05:35:22;;;;;;;8.83;1.50;;;;;;;15.21;100.00;101373.31;1890239;75;21073;-72
2022/05/20 05:37:50;;;;;;;6.40;1.70;;;;;;;15.43;100.00;101367.15;1888575;75;21021;-73
2022/05/20 05:40:23;;;;;;;6.17;1.27;;;;;;;15.35;100.00;101363.30;1902110;75;21112;-72
2022/05/20 05:42:52;;;;;;;8.63;2.07;;;;;;;15.61;100.00;101373.48;1880477;75;21484;-72
2022/05/20 05:45:22;;;;;;;6.03;1.87;;;;;;;15.32;100.00;101364.18;1902574;74;21149;-72
2022/05/20 05:48:01;;;;;;;5.85;1.42;;;;;;;15.69;100.00;101349.25;1902643;75;21035;-73
2022/05/20 05:50:29;;;;;;;8.85;1.98;;;;;;;15.50;100.00;101339.48;1902805;74;21008;-73
2022/05/20 05:52:59;;;;;;;8.45;2.52;;;;;;;15.51;100.00;101352.42;1902507;75;21012;-73
2022/05/20 05:55:28;;;;;;;6.20;2.12;;;;;;;15.52;100.00;101362.32;1900915;74;21141;-73
2022/05/20 05:58:02;;;;;;;4.17;2.00;;;;;;;15.96;100.00;101370.23;1902665;75;21044;-75
2022/05/20 06:00:27;;;;;;;3.45;1.35;;;;;;;15.64;100.00;101372.63;1901960;75;21095;-75
2022/05/20 06:02:55;;;;;;;9.03;1.92;;;;;;;15.94;100.00;101356.39;1878018;75;21566;-74
2022/05/20 06:05:22;;;;;;;7.97;1.98;;;;;;;15.96;100.00;101369.37;1907952;75;21120;-75
2022/05/20 06:07:51;;;;;;;5.75;2.22;;;;;;;15.79;100.00;101383.72;1908088;75;21020;-75
2022/05/20 06:10:19;;;;;;;10.53;1.47;;;;;;;15.89;100.00;101391.86;1910078;75;21065;-74
2022/05/20 06:12:47;;;;;;;6.33;1.30;;;;;;;15.82;100.00;101404.01;1904700;74;21479;-74
2022/05/20 06:15:17;;;;;;;10.88;1.72;;;;;;;16.06;100.00;101409.03;1909099;74;21058;-75
2022/05/20 06:17:45;;;;;;;12.28;2.70;;;;;;;15.97;100.00;101416.00;1902959;75;21098;-75
2022/05/20 06:20:13;;;;;;;8.20;3.05;;;;;;;15.83;100.00;101423.86;1902794;75;21137;-74
2022/05/20 06:22:41;;;;;;;6.60;1.72;;;;;;;15.72;100.00;101428.25;1913210;74;21048;-74
2022/05/20 06:25:09;;;;;;;5.05;2.05;;;;;;;15.81;100.00;101431.22;1915263;74;21036;-74
2022/05/20 06:27:37;;;;;;;8.28;2.35;;;;;;;15.86;100.00;101432.91;1892552;74;21062;-75
2022/05/20 06:30:07;;;;;;;7.67;1.80;;;;;;;16.00;100.00;101431.96;1940083;73;21097;-75
2022/05/20 06:32:35;;;;;;;9.10;1.47;;;;;;;15.91;100.00;101436.73;1940241;74;21790;-74
2022/05/20 06:40:46;;;;;;;7.70;2.30;;;;;;;15.86;100.00;101451.47;1939818;74;21161;-74
2022/05/20 06:43:15;;;;;;;5.03;1.70;;;;;;;15.94;100.00;101436.72;1921222;74;21173;-74
2022/05/20 06:45:45;;;;;;;4.72;2.15;;;;;;;15.93;100.00;101429.83;1922181;74;21437;-74
2022/05/20 06:48:13;;;;;;;6.22;1.92;;;;;;;15.97;100.00;101412.55;1935432;73;21495;-74
2022/05/20 06:50:42;;;;;;;8.03;1.47;;;;;;;15.86;100.00;101431.61;1914738;74;21100;-74
2022/05/20 06:53:11;;;;;;;18.55;1.80;;;;;;;15.91;100.00;101436.73;1923960;74;21022;-75
2022/05/20 06:55:38;;;;;;;6.85;1.40;;;;;;;16.07;100.00;101418.09;1928305;73;21140;-74
2022/05/20 06:58:06;;;;;;;5.70;1.32;;;;;;;15.95;100.00;101409.96;1915794;74;21078;-75
2022/05/20 07:00:33;;;;;;;8.20;1.50;;;;;;;15.89;100.00;101403.52;1914670;74;21391;-74
2022/05/20 07:03:01;;;;;;;3.83;1.42;;;;;;;15.81;100.00;101406.61;1914841;74;21035;-74
2022/05/20 07:05:28;;;;;;;7.37;1.65;;;;;;;16.01;100.00;101412.10;1914698;74;21098;-74
2022/05/20 07:07:56;;;;;;;6.42;2.35;;;;;;;15.85;100.00;101413.48;1901798;74;21528;-74
2022/05/20 07:10:23;;;;;;;3.72;1.17;;;;;;;15.73;100.00;101410.53;1942816;73;21063;-74
2022/05/20 07:12:51;;;;;;;6.28;1.87;;;;;;;15.94;100.00;101400.45;1930843;73;21427;-74
2022/05/20 07:15:19;;;;;;;5.65;1.60;;;;;;;15.92;100.00;101400.91;1921776;74;21050;-74
2022/05/20 07:17:48;;;;;;;6.80;2.62;;;;;;;16.12;100.00;101397.33;1929933;74;21213;-74
2022/05/20 07:20:16;;;;;;;4.90;1.57;;;;;;;16.12;100.00;101416.77;1901345;74;21154;-74
2022/05/20 07:22:43;;;;;;;9.38;1.52;;;;;;;16.04;100.00;101414.22;1914338;74;21651;-73
2022/05/20 07:25:11;;;;;;;5.40;1.50;;;;;;;16.17;100.00;101418.87;1914929;74;21098;-74
2022/05/20 07:27:39;;;;;;;5.87;1.55;;;;;;;16.22;100.00;101424.86;1902623;75;21104;-74
2022/05/20 07:30:08;;;;;;;6.67;1.72;;;;;;;16.59;100.00;101436.63;1942689;74;21030;-73
2022/05/20 07:32:36;;;;;;;6.78;2.45;;;;;;;16.55;100.00;101445.74;1886676;75;21541;-74
2022/05/20 07:35:03;;;;;;;7.53;1.70;;;;;;;16.33;100.00;101440.77;1915317;74;21510;-74
2022/05/20 07:37:31;;;;;;;11.08;2.12;;;;;;;16.30;100.00;101452.04;1929873;74;21080;-72
2022/05/20 07:39:58;;;;;;;9.38;2.25;;;;;;;15.93;100.00;101447.97;1940736;74;21156;-72
2022/05/20 07:42:26;;;;;;;7.80;1.72;;;;;;;16.13;100.00;101454.77;1901528;75;21037;-72
2022/05/20 07:44:53;;;;;;;6.78;1.52;;;;;;;16.54;100.00;101466.08;1947349;73;21127;-72
2022/05/20 07:47:22;;;;;;;5.08;1.27;;;;;;;16.24;100.00;101457.27;1949349;74;21014;-72
2022/05/20 07:49:49;;;;;;;8.25;1.82;;;;;;;16.49;100.00;101455.31;1916475;73;21235;-72
2022/05/20 07:54:48;;;;;;;8.10;2.62;;;;;;;16.32;100.00;101446.38;1879829;74;21063;-72
2022/05/20 07:57:16;;;;;;;3.75;1.37;;;;;;;16.10;100.00;101440.52;1915665;74;21570;-72
2022/05/20 07:59:51;;;;;;;3.83;1.42;;;;;;;16.43;100.00;101441.09;1887835;75;21537;-72
2022/05/20 08:02:21;;;;;;;5.67;1.20;;;;;;;16.64;100.00;101441.75;1916410;73;21112;-72
2022/05/20 08:05:00;;;;;;;5.67;1.75;;;;;;;16.56;100.00;101448.75;1940745;74;21042;-73
2022/05/20 08:07:34;;;;;;;6.05;1.32;;;;;;;16.39;100.00;101453.66;1938395;74;21046;-72
2022/05/20 08:10:08;;;;;;;10.20;1.75;;;;;;;16.86;100.00;101451.91;1940897;74;21061;-72
2022/05/20 08:12:35;;;;;;;5.30;1.15;;;;;;;16.72;100.00;101447.74;1924679;74;21078;-72
2022/05/20 08:15:03;;;;;;;6.47;2.25;;;;;;;16.55;100.00;101443.14;1919214;74;21062;-72
2022/05/20 08:17:33;;;;;;;5.70;1.47;;;;;;;16.73;100.00;101453.77;1946433;73;21025;-72
2022/05/20 08:19:59;;;;;;;5.50;1.40;;;;;;;16.67;100.00;101461.18;1940078;74;21149;-72
2022/05/20 08:22:27;;;;;;;5.00;1.90;;;;;;;16.88;100.00;101460.09;1932848;74;21097;-72
2022/05/20 08:24:57;;;;;;;7.53;1.90;;;;;;;17.27;100.00;101454.92;1911340;74;21200;-72
2022/05/20 08:27:27;;;;;;;6.00;1.60;;;;;;;17.76;100.00;101450.79;1929599;73;21109;-72
2022/05/20 08:29:55;;;;;;;4.92;1.37;;;;;;;18.47;100.00;101463.52;1913469;74;21463;-72
2022/05/20 08:32:23;;;;;;;7.62;1.62;;;;;;;18.24;100.00;101463.47;1912162;74;21102;-73
2022/05/20 08:34:51;;;;;;;4.67;1.32;;;;;;;18.77;100.00;101462.55;1920532;74;21144;-72
2022/05/20 08:37:19;;;;;;;4.17;1.25;;;;;;;18.60;100.00;101466.77;1913657;75;21022;-73
2022/05/20 08:39:46;;;;;;;3.60;1.30;;;;;;;18.72;100.00;101469.56;1915863;74;21064;-72
2022/05/20 08:42:17;;;;;;;5.75;1.70;;;;;;;19.18;100.00;101467.86;1943542;73;21455;-72
2022/05/20 08:44:45;;;;;;;3.42;1.15;;;;;;;19.18;100.00;101469.16;1936090;73;21109;-72
2022/05/20 08:47:35;;;;;;;7.15;1.70;;;;;;;19.34;100.00;101470.98;1889272;75;21018;-73
2022/05/20 08:50:05;;;;;;;7.12;1.20;;;;;;;19.44;100.00;101472.08;1904731;74;21116;-72
2022/05/20 08:52:33;;;;;;;7.47;1.67;;;;;;;19.71;100.00;101478.88;1909199;75;21101;-72
2022/05/20 08:55:00;;;;;;;3.52;1.02;;;;;;;19.67;100.00;101479.41;1909134;75;21123;-73
2022/05/20 08:57:32;;;;;;;4.03;1.35;;;;;;;19.51;100.00;101484.55;1913302;74;21615;-73
2022/05/20 08:59:59;;;;;;;9.35;1.35;;;;;;;19.38;100.00;101476.97;1899253;73;21092;-73
2022/05/20 09:02:27;;;;;;;7.83;1.60;;;;;;;19.65;100.00;101481.17;1911697;74;21108;-73
2022/05/20 09:04:55;;;;;;;4.45;1.45;;;;;;;19.56;100.00;101482.69;1926265;73;21580;-72
2022/05/20 09:07:23;;;;;;;2.22;1.25;;;;;;;19.78;100.00;101489.58;1909351;74;21065;-72
2022/05/20 09:09:56;;;;;;;6.95;1.37;;;;;;;19.78;100.00;101489.58;1913711;75;21028;-73
2022/05/20 09:12:32;;;;;;;4.65;1.50;;;;;;;20.16;100.00;101484.80;1910282;75;21543;-73
2022/05/20 09:17:49;;;;;;;4.00;1.00;;;;;;;20.47;100.00;101485.34;1942822;73;21066;-72
2022/05/20 09:20:18;;;;;;;4.17;1.25;;;;;;;21.07;100.00;101484.64;1919899;73;21550;-72
2022/05/20 09:23:07;;;;;;;3.55;1.00;;;;;;;21.10;100.00;101490.63;1912805;74;21124;-73
2022/05/20 09:25:36;;;;;;;2.55;1.02;;;;;;;21.47;100.00;101490.44;1912906;75;21192;-73
2022/05/20 09:28:19;;;;;;;4.28;0.80;;;;;;;21.82;100.00;101487.66;1913592;75;21024;-72
2022/05/20 09:30:49;;;;;;;4.45;0.95;;;;;;;21.63;100.00;101490.37;1930524;74;21163;-73
2022/05/20 09:33:19;;;;;;;2.92;1.35;;;;;;;21.84;100.00;101497.63;1913617;74;21588;-73
2022/05/20 09:35:58;;;;;;;3.50;1.00;;;;;;;21.75;100.00;101504.00;1925654;73;21186;-73
2022/05/20 09:38:43;;;;;;;2.22;0.70;;;;;;;21.99;100.00;101499.77;1909669;75;21003;-73
2022/05/20 09:41:22;;;;;;;3.90;0.90;;;;;;;21.04;100.00;101497.31;1908665;74;21031;-73
2022/05/20 09:44:01;;;;;;;4.12;1.10;;;;;;;20.99;100.00;101504.44;1908597;75;21041;-73
2022/05/20 09:46:31;;;;;;;3.92;0.95;;;;;;;21.08;100.00;101517.23;1907941;75;20998;-73
2022/05/20 09:49:02;;;;;;;2.17;1.10;;;;;;;21.90;100.00;101499.59;1908567;74;21043;-73
2022/05/20 09:51:47;;;;;;;4.75;0.80;;;;;;;21.91;100.00;101503.91;1907706;74;21008;-73
2022/05/20 09:54:36;;;;;;;5.55;1.07;;;;;;;21.63;100.00;101509.98;1908296;74;21734;-73
2022/05/20 09:57:06;;;;;;;2.00;0.78;;;;;;;21.63;100.00;101509.14;1908557;75;21118;-73
2022/05/20 09:59:57;;;;;;;2.20;0.75;;;;;;;21.25;100.00;101511.53;1908584;75;21029;-72
2022/05/20 10:02:42;;;;;;;2.15;0.70;;;;;;;21.62;100.00;101517.87;1909091;74;21053;-73
2022/05/20 10:05:16;;;;;;;2.55;0.65;;;;;;;21.69;100.00;101511.55;1921431;73;21675;-73
2022/05/20 10:07:58;;;;;;;2.15;0.75;;;;;;;22.07;100.00;101513.89;1908442;74;21102;-74
2022/05/20 10:10:49;;;;;;;1.50;0.60;;;;;;;22.79;100.00;101507.59;1908733;74;21027;-73
2022/05/20 10:13:26;;;;;;;3.85;0.85;;;;;;;22.09;100.00;101509.47;1910053;74;21596;-74
2022/05/20 10:15:56;;;;;;;2.05;0.70;;;;;;;22.72;100.00;101510.02;1930381;74;21204;-73
2022/05/20 10:18:42;;;;;;;3.47;1.12;;;;;;;22.35;100.00;101514.72;1908455;75;21106;-74
2022/05/20 10:21:15;;;;;;;3.80;0.70;;;;;;;23.25;100.00;101522.08;1845543;74;21132;-75
2022/05/20 10:23:54;;;;;;;5.92;1.42;;;;;;;22.66;100.00;101517.63;1914682;74;21081;-75
2022/05/20 10:26:33;;;;;;;6.97;0.80;;;;;;;23.04;100.00;101521.09;1936567;74;21025;-75
2022/05/20 10:34:55;;;;;;;3.62;1.25;;;;;;;23.14;100.00;101531.66;1902206;74;21068;-75
2022/05/20 10:37:47;;;;;;;1.10;0.57;;;;;;;22.96;100.00;101533.62;1926694;74;21052;-75
2022/05/20 10:40:30;;;;;;;6.30;1.72;;;;;;;22.60;100.00;101546.67;1940653;74;21058;-75
2022/05/20 10:43:18;;;;;;;1.87;0.72;;;;;;;22.32;100.00;101537.09;1940854;74;21034;-75
2022/05/20 10:48:48;;;;;;;1.72;0.80;;;;;;;22.92;100.00;101558.63;1930806;74;21061;-75
2022/05/20 10:51:40;;;;;;;6.07;1.07;;;;;;;23.01;100.00;101559.20;1915937;74;21120;-74
2022/05/20 10:54:25;;;;;;;3.55;1.00;;;;;;;22.90;100.00;101558.28;1938706;74;21061;-75
2022/05/20 10:57:13;;;;;;;3.65;1.00;;;;;;;23.01;100.00;101561.82;1944619;72;21037;-74
2022/05/20 11:00:08;;;;;;;4.53;1.67;;;;;;;23.18;100.00;101561.22;1940770;74;21068;-75
2022/05/20 11:02:57;;;;;;;1.62;0.90;;;;;;;23.59;100.00;101568.48;1947870;73;20997;-73
2022/05/20 11:05:37;;;;;;;2.92;0.93;;;;;;;23.22;100.00;101578.54;1930420;73;21510;-73
2022/05/20 11:08:10;;;;;;;3.45;0.70;;;;;;;23.05;100.00;101581.80;1945715;74;21053;-73
2022/05/20 11:10:50;;;;;;;2.22;0.93;;;;;;;22.16;100.00;101582.92;1942309;73;21463;-73
2022/05/20 11:13:42;;;;;;;3.95;1.40;;;;;;;22.14;100.00;101588.67;1921829;73;21011;-74
2022/05/20 11:16:31;;;;;;;4.65;1.00;;;;;;;23.01;100.00;101595.89;1938643;73;21021;-73
2022/05/20 11:19:07;;;;;;;3.52;1.12;;;;;;;22.13;100.00;101607.91;1939003;74;21126;-73
2022/05/20 11:21:52;;;;;;;4.10;0.90;;;;;;;22.58;100.00;101589.93;1940889;74;21022;-73
2022/05/20 11:24:44;;;;;;;3.02;1.22;;;;;;;21.93;100.00;101607.64;1944876;73;21124;-73
2022/05/20 11:27:34;;;;;;;3.62;1.02;;;;;;;22.09;100.00;101608.91;1927983;72;21637;-74
2022/05/20 11:30:07;;;;;;;1.87;0.95;;;;;;;21.86;100.00;101606.97;1906412;74;21643;-73
2022/05/20 11:32:59;;;;;;;3.42;0.82;;;;;;;22.57;100.00;101601.31;1912868;74;21037;-74
2022/05/20 11:35:39;;;;;;;3.70;0.90;;;;;;;22.49;100.00;101609.37;1912887;74;21124;-74
2022/05/20 11:38:35;;;;;;;7.47;1.32;;;;;;;22.49;100.00;101609.37;1912805;74;21111;-75
2022/05/20 11:41:25;;;;;;;4.20;1.27;;;;;;;21.73;100.00;101614.32;1911349;73;21122;-75
2022/05/20 11:44:10;;;;;;;2.17;0.95;;;;;;;21.75;100.00;101622.55;1911454;74;21030;-75
2022/05/20 11:46:43;;;;;;;5.62;1.12;;;;;;;21.25;100.00;101628.29;1898243;74;21166;-75
2022/05/20 11:49:31;;;;;;;6.42;0.90;;;;;;;21.55;100.00;101627.01;1911240;74;21030;-75
2022/05/20 11:52:14;;;;;;;2.70;1.20;;;;;;;21.38;100.00;101627.04;1911711;74;21025;-75
2022/05/20 11:54:50;;;;;;;5.42;1.20;;;;;;;21.45;100.00;101639.95;1911791;74;21069;-75
2022/05/20 11:57:26;;;;;;;3.05;1.42;;;;;;;20.50;100.00;101653.62;1904683;74;21025;-75
2022/05/20 12:00:08;;;;;;;5.45;1.47;;;;;;;20.50;100.00;101653.62;1911861;74;21483;-75
2022/05/20 12:02:42;;;;;;;2.98;1.82;;;;;;;20.10;100.00;101657.53;1912016;74;21088;-75
2022/05/20 12:05:12;;;;;;;;;;;;;;;20.15;100.00;101659.19;1913905;74;21085;-76
2022/05/20 12:07:41;;;;;;;3.92;1.40;;;;;;;20.50;100.00;101666.67;1910714;74;20453;-75
2022/05/20 12:10:33;;;;;;;5.47;1.15;;;;;;;20.44;100.00;101673.32;1937702;73;21053;-75
2022/05/20 12:13:14;;;;;;;5.50;1.67;;;;;;;20.32;100.00;101658.81;1917954;73;21092;-75